sensor_id;sensor_type;location;lat;lon;timestamp;temperature;humidity
20147;DHT22;10234;50.856;15.716;2024-01-27T00:01:14;3.10;99.90
20147;DHT22;10234;50.856;15.716;2024-01-27T00:03:41;3.10;99.90
20147;DHT22;10234;50.856;15.716;2024-01-27T00:06:08;3.10;99.90
20147;DHT22;10234;50.856;15.716;2024-01-27T00:08:36;3.10;99.90
20147;DHT22;10234;50.856;15.716;2024-01-27T00:11:03;3.20;99.90
20147;DHT22;10234;50.856;15.716;2024-01-27T00:13:30;3.10;99.90
20147;DHT22;10234;50.856;15.716;2024-01-27T00:15:56;3.70;99.90
20147;DHT22;10234;50.856;15.716;2024-01-27T00:18:23;2.90;99.90
20147;DHT22;10234;50.856;15.716;2024-01-27T00:20:50;2.60;99.90
20147;DHT22;10234;50.856;15.716;2024-01-27T00:23:17;2.90;99.90
20147;DHT22;10234;50.856;15.716;2024-01-27T00:25:45;2.90;99.90
20147;DHT22;10234;50.856;15.716;2024-01-27T00:28:12;2.90;99.90
20147;DHT22;10234;50.856;15.716;2024-01-27T00:30:38;2.90;99.90
20147;DHT22;10234;50.856;15.716;2024-01-27T00:33:05;2.80;99.90
20147;DHT22;10234;50.856;15.716;2024-01-27T00:35:32;2.90;99.90
20147;DHT22;10234;50.856;15.716;2024-01-27T00:37:59;3.00;99.90
20147;DHT22;10234;50.856;15.716;2024-01-27T00:40:25;2.90;99.90
20147;DHT22;10234;50.856;15.716;2024-01-27T00:42:54;3.00;99.90
20147;DHT22;10234;50.856;15.716;2024-01-27T00:45:20;2.90;99.90
20147;DHT22;10234;50.856;15.716;2024-01-27T00:47:49;3.00;99.90
20147;DHT22;10234;50.856;15.716;2024-01-27T00:50:16;3.00;99.90
20147;DHT22;10234;50.856;15.716;2024-01-27T00:52:43;3.00;99.90
20147;DHT22;10234;50.856;15.716;2024-01-27T00:55:10;3.00;99.90
20147;DHT22;10234;50.856;15.716;2024-01-27T00:57:37;2.80;99.90
20147;DHT22;10234;50.856;15.716;2024-01-27T01:00:06;2.90;99.90
20147;DHT22;10234;50.856;15.716;2024-01-27T01:02:34;2.90;99.90
20147;DHT22;10234;50.856;15.716;2024-01-27T01:05:00;2.80;99.90
20147;DHT22;10234;50.856;15.716;2024-01-27T01:07:29;2.80;99.90
20147;DHT22;10234;50.856;15.716;2024-01-27T01:09:56;2.80;99.90
20147;DHT22;10234;50.856;15.716;2024-01-27T01:12:23;3.70;99.90
20147;DHT22;10234;50.856;15.716;2024-01-27T01:14:51;2.70;99.90
20147;DHT22;10234;50.856;15.716;2024-01-27T01:17:19;2.60;99.90
20147;DHT22;10234;50.856;15.716;2024-01-27T01:19:46;2.70;99.90
20147;DHT22;10234;50.856;15.716;2024-01-27T01:22:13;2.70;99.90
20147;DHT22;10234;50.856;15.716;2024-01-27T01:24:39;2.70;99.90
20147;DHT22;10234;50.856;15.716;2024-01-27T01:27:06;2.80;99.90
20147;DHT22;10234;50.856;15.716;2024-01-27T01:29:33;3.60;99.90
20147;DHT22;10234;50.856;15.716;2024-01-27T01:32:00;3.50;99.90
20147;DHT22;10234;50.856;15.716;2024-01-27T01:34:29;2.60;99.90
20147;DHT22;10234;50.856;15.716;2024-01-27T01:36:57;2.60;99.90
20147;DHT22;10234;50.856;15.716;2024-01-27T01:39:24;3.70;99.90
20147;DHT22;10234;50.856;15.716;2024-01-27T01:41:50;2.80;99.90
20147;DHT22;10234;50.856;15.716;2024-01-27T01:44:17;2.70;99.90
20147;DHT22;10234;50.856;15.716;2024-01-27T01:46:44;2.60;99.90
20147;DHT22;10234;50.856;15.716;2024-01-27T01:49:11;2.70;99.90
20147;DHT22;10234;50.856;15.716;2024-01-27T01:51:39;2.60;99.90
20147;DHT22;10234;50.856;15.716;2024-01-27T01:54:06;2.50;99.90
20147;DHT22;10234;50.856;15.716;2024-01-27T01:56:33;2.50;99.90
20147;DHT22;10234;50.856;15.716;2024-01-27T01:59:00;2.80;99.90
20147;DHT22;10234;50.856;15.716;2024-01-27T02:01:27;2.60;99.90
20147;DHT22;10234;50.856;15.716;2024-01-27T02:03:55;2.60;99.90
20147;DHT22;10234;50.856;15.716;2024-01-27T02:06:23;2.80;99.90
20147;DHT22;10234;50.856;15.716;2024-01-27T02:08:51;4.50;99.90
20147;DHT22;10234;50.856;15.716;2024-01-27T02:11:18;2.50;99.90
20147;DHT22;10234;50.856;15.716;2024-01-27T02:13:45;2.60;99.90
20147;DHT22;10234;50.856;15.716;2024-01-27T02:16:13;2.50;99.90
20147;DHT22;10234;50.856;15.716;2024-01-27T02:18:40;3.30;99.90
20147;DHT22;10234;50.856;15.716;2024-01-27T02:21:07;2.60;99.90
20147;DHT22;10234;50.856;15.716;2024-01-27T02:23:33;2.50;99.90
20147;DHT22;10234;50.856;15.716;2024-01-27T02:26:01;2.50;99.90
20147;DHT22;10234;50.856;15.716;2024-01-27T02:28:28;2.50;99.90
20147;DHT22;10234;50.856;15.716;2024-01-27T02:30:57;2.50;99.90
20147;DHT22;10234;50.856;15.716;2024-01-27T02:33:25;2.40;99.90
20147;DHT22;10234;50.856;15.716;2024-01-27T02:35:52;2.50;99.90
20147;DHT22;10234;50.856;15.716;2024-01-27T02:38:18;2.50;99.90
20147;DHT22;10234;50.856;15.716;2024-01-27T02:40:45;2.50;99.90
20147;DHT22;10234;50.856;15.716;2024-01-27T02:43:13;2.50;99.90
20147;DHT22;10234;50.856;15.716;2024-01-27T02:45:40;3.40;99.90
20147;DHT22;10234;50.856;15.716;2024-01-27T02:48:07;3.90;99.90
20147;DHT22;10234;50.856;15.716;2024-01-27T02:50:34;2.50;99.90
20147;DHT22;10234;50.856;15.716;2024-01-27T02:53:01;2.40;99.90
20147;DHT22;10234;50.856;15.716;2024-01-27T02:55:27;2.30;99.90
20147;DHT22;10234;50.856;15.716;2024-01-27T02:57:54;2.30;99.90
20147;DHT22;10234;50.856;15.716;2024-01-27T03:00:22;2.20;99.90
20147;DHT22;10234;50.856;15.716;2024-01-27T03:02:49;3.00;99.90
20147;DHT22;10234;50.856;15.716;2024-01-27T03:05:16;2.10;99.90
20147;DHT22;10234;50.856;15.716;2024-01-27T03:07:43;1.90;99.90
20147;DHT22;10234;50.856;15.716;2024-01-27T03:10:09;1.80;99.90
20147;DHT22;10234;50.856;15.716;2024-01-27T03:12:36;2.00;99.90
20147;DHT22;10234;50.856;15.716;2024-01-27T03:15:04;1.80;99.90
20147;DHT22;10234;50.856;15.716;2024-01-27T03:17:32;1.80;99.90
20147;DHT22;10234;50.856;15.716;2024-01-27T03:19:59;1.70;99.90
20147;DHT22;10234;50.856;15.716;2024-01-27T03:22:25;1.60;99.90
20147;DHT22;10234;50.856;15.716;2024-01-27T03:24:52;1.60;99.90
20147;DHT22;10234;50.856;15.716;2024-01-27T03:27:20;1.60;99.90
20147;DHT22;10234;50.856;15.716;2024-01-27T03:29:47;1.60;99.90
20147;DHT22;10234;50.856;15.716;2024-01-27T03:32:14;1.50;99.90
20147;DHT22;10234;50.856;15.716;2024-01-27T03:34:43;1.80;99.90
20147;DHT22;10234;50.856;15.716;2024-01-27T03:37:11;1.60;99.90
20147;DHT22;10234;50.856;15.716;2024-01-27T03:39:38;1.60;99.90
20147;DHT22;10234;50.856;15.716;2024-01-27T03:42:07;1.70;99.90
20147;DHT22;10234;50.856;15.716;2024-01-27T03:44:34;1.40;99.90
20147;DHT22;10234;50.856;15.716;2024-01-27T03:47:01;1.40;99.90
20147;DHT22;10234;50.856;15.716;2024-01-27T03:49:27;1.50;99.90
20147;DHT22;10234;50.856;15.716;2024-01-27T03:51:55;1.30;99.90
20147;DHT22;10234;50.856;15.716;2024-01-27T03:54:22;1.40;99.90
20147;DHT22;10234;50.856;15.716;2024-01-27T03:56:49;1.40;99.90
20147;DHT22;10234;50.856;15.716;2024-01-27T03:59:16;1.50;99.90
20147;DHT22;10234;50.856;15.716;2024-01-27T04:01:43;1.60;99.90
20147;DHT22;10234;50.856;15.716;2024-01-27T04:04:10;1.50;99.90
20147;DHT22;10234;50.856;15.716;2024-01-27T04:06:37;1.40;99.90
20147;DHT22;10234;50.856;15.716;2024-01-27T04:09:06;1.40;99.90
20147;DHT22;10234;50.856;15.716;2024-01-27T04:11:34;1.30;99.90
20147;DHT22;10234;50.856;15.716;2024-01-27T04:14:01;1.40;99.90
20147;DHT22;10234;50.856;15.716;2024-01-27T04:16:28;1.30;99.90
20147;DHT22;10234;50.856;15.716;2024-01-27T04:18:55;1.60;99.90
20147;DHT22;10234;50.856;15.716;2024-01-27T04:21:22;1.20;99.90
20147;DHT22;10234;50.856;15.716;2024-01-27T04:23:49;1.20;99.90
20147;DHT22;10234;50.856;15.716;2024-01-27T04:26:17;1.20;99.90
20147;DHT22;10234;50.856;15.716;2024-01-27T04:28:44;1.20;99.90
20147;DHT22;10234;50.856;15.716;2024-01-27T04:31:11;1.60;99.90
20147;DHT22;10234;50.856;15.716;2024-01-27T04:33:38;1.40;99.90
20147;DHT22;10234;50.856;15.716;2024-01-27T04:36:05;1.30;99.90
20147;DHT22;10234;50.856;15.716;2024-01-27T04:38:34;1.40;99.90
20147;DHT22;10234;50.856;15.716;2024-01-27T04:41:01;1.30;99.90
20147;DHT22;10234;50.856;15.716;2024-01-27T04:43:30;1.40;99.90
20147;DHT22;10234;50.856;15.716;2024-01-27T04:45:57;1.30;99.90
20147;DHT22;10234;50.856;15.716;2024-01-27T04:48:24;1.80;99.90
20147;DHT22;10234;50.856;15.716;2024-01-27T04:50:51;1.30;99.90
20147;DHT22;10234;50.856;15.716;2024-01-27T04:53:18;1.40;99.90
20147;DHT22;10234;50.856;15.716;2024-01-27T04:55:45;1.20;99.90
20147;DHT22;10234;50.856;15.716;2024-01-27T04:58:11;1.30;99.90
20147;DHT22;10234;50.856;15.716;2024-01-27T05:00:39;1.10;99.90
20147;DHT22;10234;50.856;15.716;2024-01-27T05:03:06;1.20;99.90
20147;DHT22;10234;50.856;15.716;2024-01-27T05:05:40;1.20;99.90
20147;DHT22;10234;50.856;15.716;2024-01-27T05:08:07;1.40;99.90
20147;DHT22;10234;50.856;15.716;2024-01-27T05:10:34;1.30;99.90
20147;DHT22;10234;50.856;15.716;2024-01-27T05:13:01;1.50;99.90
20147;DHT22;10234;50.856;15.716;2024-01-27T05:15:28;1.50;99.90
20147;DHT22;10234;50.856;15.716;2024-01-27T05:17:56;1.40;99.90
20147;DHT22;10234;50.856;15.716;2024-01-27T05:20:23;1.60;99.90
20147;DHT22;10234;50.856;15.716;2024-01-27T05:22:50;1.50;99.90
20147;DHT22;10234;50.856;15.716;2024-01-27T05:25:16;1.80;99.90
20147;DHT22;10234;50.856;15.716;2024-01-27T05:27:43;1.40;99.90
20147;DHT22;10234;50.856;15.716;2024-01-27T05:30:10;1.50;99.90
20147;DHT22;10234;50.856;15.716;2024-01-27T05:32:37;1.60;99.90
20147;DHT22;10234;50.856;15.716;2024-01-27T05:35:07;1.60;99.90
20147;DHT22;10234;50.856;15.716;2024-01-27T05:37:34;1.60;99.90
20147;DHT22;10234;50.856;15.716;2024-01-27T05:40:01;1.40;99.90
20147;DHT22;10234;50.856;15.716;2024-01-27T05:42:29;1.50;99.90
20147;DHT22;10234;50.856;15.716;2024-01-27T05:44:55;1.60;99.90
20147;DHT22;10234;50.856;15.716;2024-01-27T05:47:22;1.50;99.90
20147;DHT22;10234;50.856;15.716;2024-01-27T05:49:49;1.50;99.90
20147;DHT22;10234;50.856;15.716;2024-01-27T05:52:17;1.50;99.90
20147;DHT22;10234;50.856;15.716;2024-01-27T05:54:44;1.70;99.90
20147;DHT22;10234;50.856;15.716;2024-01-27T05:57:11;1.60;99.90
20147;DHT22;10234;50.856;15.716;2024-01-27T05:59:37;1.60;99.90
20147;DHT22;10234;50.856;15.716;2024-01-27T06:02:04;1.50;99.90
20147;DHT22;10234;50.856;15.716;2024-01-27T06:04:31;1.50;99.90
20147;DHT22;10234;50.856;15.716;2024-01-27T06:06:58;1.60;99.90
20147;DHT22;10234;50.856;15.716;2024-01-27T06:09:27;1.50;99.90
20147;DHT22;10234;50.856;15.716;2024-01-27T06:11:53;1.50;99.90
20147;DHT22;10234;50.856;15.716;2024-01-27T06:14:20;1.60;99.90
20147;DHT22;10234;50.856;15.716;2024-01-27T06:16:47;1.50;99.90
20147;DHT22;10234;50.856;15.716;2024-01-27T06:19:14;1.50;99.90
20147;DHT22;10234;50.856;15.716;2024-01-27T06:21:41;1.70;99.90
20147;DHT22;10234;50.856;15.716;2024-01-27T06:24:07;3.20;99.90
20147;DHT22;10234;50.856;15.716;2024-01-27T06:26:36;1.80;99.90
20147;DHT22;10234;50.856;15.716;2024-01-27T06:29:03;1.70;99.90
20147;DHT22;10234;50.856;15.716;2024-01-27T06:31:29;2.40;99.90
20147;DHT22;10234;50.856;15.716;2024-01-27T06:33:56;1.70;99.90
20147;DHT22;10234;50.856;15.716;2024-01-27T06:36:23;1.80;99.90
20147;DHT22;10234;50.856;15.716;2024-01-27T06:38:52;1.70;99.90
20147;DHT22;10234;50.856;15.716;2024-01-27T06:41:19;2.50;99.90
20147;DHT22;10234;50.856;15.716;2024-01-27T06:43:47;1.70;99.90
20147;DHT22;10234;50.856;15.716;2024-01-27T06:46:14;1.70;99.90
20147;DHT22;10234;50.856;15.716;2024-01-27T06:48:41;1.70;99.90
20147;DHT22;10234;50.856;15.716;2024-01-27T06:51:08;1.80;99.90
20147;DHT22;10234;50.856;15.716;2024-01-27T06:53:34;1.90;99.90
20147;DHT22;10234;50.856;15.716;2024-01-27T06:56:01;1.80;99.90
20147;DHT22;10234;50.856;15.716;2024-01-27T06:58:28;1.90;99.90
20147;DHT22;10234;50.856;15.716;2024-01-27T07:00:56;2.10;99.90
20147;DHT22;10234;50.856;15.716;2024-01-27T07:03:23;2.00;99.90
20147;DHT22;10234;50.856;15.716;2024-01-27T07:05:50;3.30;99.90
20147;DHT22;10234;50.856;15.716;2024-01-27T07:08:17;2.00;99.90
20147;DHT22;10234;50.856;15.716;2024-01-27T07:10:43;3.90;99.90
20147;DHT22;10234;50.856;15.716;2024-01-27T07:13:11;2.10;99.90
20147;DHT22;10234;50.856;15.716;2024-01-27T07:15:38;2.00;99.90
20147;DHT22;10234;50.856;15.716;2024-01-27T07:18:06;1.90;99.90
20147;DHT22;10234;50.856;15.716;2024-01-27T07:20:34;2.80;99.90
20147;DHT22;10234;50.856;15.716;2024-01-27T07:23:01;2.10;99.90
20147;DHT22;10234;50.856;15.716;2024-01-27T07:25:28;2.00;99.90
20147;DHT22;10234;50.856;15.716;2024-01-27T07:27:57;1.90;99.90
20147;DHT22;10234;50.856;15.716;2024-01-27T07:30:25;2.00;99.90
20147;DHT22;10234;50.856;15.716;2024-01-27T07:32:52;1.90;99.90
20147;DHT22;10234;50.856;15.716;2024-01-27T07:35:20;2.10;99.90
20147;DHT22;10234;50.856;15.716;2024-01-27T07:37:47;2.00;99.90
20147;DHT22;10234;50.856;15.716;2024-01-27T07:40:14;2.00;99.90
20147;DHT22;10234;50.856;15.716;2024-01-27T07:42:41;2.00;99.90
20147;DHT22;10234;50.856;15.716;2024-01-27T07:45:08;2.00;99.90
20147;DHT22;10234;50.856;15.716;2024-01-27T07:47:35;2.20;99.90
20147;DHT22;10234;50.856;15.716;2024-01-27T07:50:02;2.20;99.90
20147;DHT22;10234;50.856;15.716;2024-01-27T07:52:31;2.20;99.90
20147;DHT22;10234;50.856;15.716;2024-01-27T07:54:58;2.30;99.90
20147;DHT22;10234;50.856;15.716;2024-01-27T07:57:24;3.70;99.90
20147;DHT22;10234;50.856;15.716;2024-01-27T07:59:51;2.10;99.90
20147;DHT22;10234;50.856;15.716;2024-01-27T08:02:18;2.30;99.90
20147;DHT22;10234;50.856;15.716;2024-01-27T08:04:45;3.40;99.90
20147;DHT22;10234;50.856;15.716;2024-01-27T08:07:12;2.50;99.90
20147;DHT22;10234;50.856;15.716;2024-01-27T08:09:41;2.50;99.90
20147;DHT22;10234;50.856;15.716;2024-01-27T08:12:08;2.60;99.90
20147;DHT22;10234;50.856;15.716;2024-01-27T08:14:35;2.60;99.90
20147;DHT22;10234;50.856;15.716;2024-01-27T08:17:02;2.60;99.90
20147;DHT22;10234;50.856;15.716;2024-01-27T08:19:29;2.60;99.90
20147;DHT22;10234;50.856;15.716;2024-01-27T08:21:56;2.70;99.90
20147;DHT22;10234;50.856;15.716;2024-01-27T08:24:23;2.70;99.90
20147;DHT22;10234;50.856;15.716;2024-01-27T08:26:51;2.70;99.90
20147;DHT22;10234;50.856;15.716;2024-01-27T08:29:18;2.80;99.90
20147;DHT22;10234;50.856;15.716;2024-01-27T08:31:45;2.90;99.90
20147;DHT22;10234;50.856;15.716;2024-01-27T08:34:12;3.00;99.90
20147;DHT22;10234;50.856;15.716;2024-01-27T08:36:40;3.00;99.90
20147;DHT22;10234;50.856;15.716;2024-01-27T08:39:07;3.00;99.90
20147;DHT22;10234;50.856;15.716;2024-01-27T08:41:34;3.20;99.90
20147;DHT22;10234;50.856;15.716;2024-01-27T08:44:02;3.40;99.90
20147;DHT22;10234;50.856;15.716;2024-01-27T08:46:29;3.40;99.90
20147;DHT22;10234;50.856;15.716;2024-01-27T08:48:56;3.50;99.90
20147;DHT22;10234;50.856;15.716;2024-01-27T08:51:23;3.60;99.90
20147;DHT22;10234;50.856;15.716;2024-01-27T08:53:50;3.70;99.90
20147;DHT22;10234;50.856;15.716;2024-01-27T08:56:17;3.80;99.90
20147;DHT22;10234;50.856;15.716;2024-01-27T08:58:44;3.70;99.90
20147;DHT22;10234;50.856;15.716;2024-01-27T09:01:16;3.60;99.90
20147;DHT22;10234;50.856;15.716;2024-01-27T09:03:42;4.20;99.90
20147;DHT22;10234;50.856;15.716;2024-01-27T09:06:10;3.80;99.90
20147;DHT22;10234;50.856;15.716;2024-01-27T09:08:37;3.80;99.90
20147;DHT22;10234;50.856;15.716;2024-01-27T09:11:03;3.80;99.90
20147;DHT22;10234;50.856;15.716;2024-01-27T09:13:30;3.70;99.90
20147;DHT22;10234;50.856;15.716;2024-01-27T09:16:00;3.80;99.90
20147;DHT22;10234;50.856;15.716;2024-01-27T09:18:28;3.70;99.90
20147;DHT22;10234;50.856;15.716;2024-01-27T09:20:55;3.80;99.90
20147;DHT22;10234;50.856;15.716;2024-01-27T09:23:22;4.10;99.90
20147;DHT22;10234;50.856;15.716;2024-01-27T09:25:49;3.70;99.90
20147;DHT22;10234;50.856;15.716;2024-01-27T09:28:16;3.60;99.90
20147;DHT22;10234;50.856;15.716;2024-01-27T09:30:42;3.70;99.90
20147;DHT22;10234;50.856;15.716;2024-01-27T09:33:09;3.80;99.90
20147;DHT22;10234;50.856;15.716;2024-01-27T09:35:38;4.00;99.90
20147;DHT22;10234;50.856;15.716;2024-01-27T09:38:05;4.00;99.90
20147;DHT22;10234;50.856;15.716;2024-01-27T09:40:33;5.20;99.90
20147;DHT22;10234;50.856;15.716;2024-01-27T09:43:00;4.00;99.90
20147;DHT22;10234;50.856;15.716;2024-01-27T09:45:29;4.60;99.90
20147;DHT22;10234;50.856;15.716;2024-01-27T09:47:57;3.80;99.90
20147;DHT22;10234;50.856;15.716;2024-01-27T09:50:24;4.70;99.90
20147;DHT22;10234;50.856;15.716;2024-01-27T09:52:53;5.20;99.90
20147;DHT22;10234;50.856;15.716;2024-01-27T09:55:19;3.70;99.90
20147;DHT22;10234;50.856;15.716;2024-01-27T09:57:46;3.90;99.90
20147;DHT22;10234;50.856;15.716;2024-01-27T10:00:14;3.90;99.90
20147;DHT22;10234;50.856;15.716;2024-01-27T10:02:43;4.00;99.90
20147;DHT22;10234;50.856;15.716;2024-01-27T10:05:13;4.00;99.90
20147;DHT22;10234;50.856;15.716;2024-01-27T10:07:42;4.10;99.90
20147;DHT22;10234;50.856;15.716;2024-01-27T10:10:10;4.10;99.90
20147;DHT22;10234;50.856;15.716;2024-01-27T10:12:40;4.20;99.90
20147;DHT22;10234;50.856;15.716;2024-01-27T10:15:18;4.30;99.90
20147;DHT22;10234;50.856;15.716;2024-01-27T10:17:45;5.20;99.90
20147;DHT22;10234;50.856;15.716;2024-01-27T10:20:12;4.40;99.90
20147;DHT22;10234;50.856;15.716;2024-01-27T10:22:41;4.40;99.90
20147;DHT22;10234;50.856;15.716;2024-01-27T10:25:10;4.70;99.90
20147;DHT22;10234;50.856;15.716;2024-01-27T10:27:37;4.70;99.90
20147;DHT22;10234;50.856;15.716;2024-01-27T10:30:05;4.90;99.90
20147;DHT22;10234;50.856;15.716;2024-01-27T10:32:33;4.80;99.90
20147;DHT22;10234;50.856;15.716;2024-01-27T10:35:03;4.60;99.90
20147;DHT22;10234;50.856;15.716;2024-01-27T10:37:30;4.70;99.90
20147;DHT22;10234;50.856;15.716;2024-01-27T10:40:01;4.60;99.90
20147;DHT22;10234;50.856;15.716;2024-01-27T10:42:30;4.40;99.90
20147;DHT22;10234;50.856;15.716;2024-01-27T10:44:58;4.40;99.90
20147;DHT22;10234;50.856;15.716;2024-01-27T10:47:27;4.60;99.90
20147;DHT22;10234;50.856;15.716;2024-01-27T10:49:55;4.30;99.90
20147;DHT22;10234;50.856;15.716;2024-01-27T10:52:24;4.30;99.90
20147;DHT22;10234;50.856;15.716;2024-01-27T10:54:58;4.20;99.90
20147;DHT22;10234;50.856;15.716;2024-01-27T10:57:26;4.10;99.90
20147;DHT22;10234;50.856;15.716;2024-01-27T10:59:55;4.00;99.90
20147;DHT22;10234;50.856;15.716;2024-01-27T11:02:24;4.50;99.90
20147;DHT22;10234;50.856;15.716;2024-01-27T11:04:51;3.90;99.90
20147;DHT22;10234;50.856;15.716;2024-01-27T11:07:20;4.00;99.90
20147;DHT22;10234;50.856;15.716;2024-01-27T11:09:49;4.00;99.90
20147;DHT22;10234;50.856;15.716;2024-01-27T11:12:18;4.00;99.90
20147;DHT22;10234;50.856;15.716;2024-01-27T11:14:46;4.00;99.90
20147;DHT22;10234;50.856;15.716;2024-01-27T11:17:14;3.90;99.90
20147;DHT22;10234;50.856;15.716;2024-01-27T11:19:42;3.80;99.90
20147;DHT22;10234;50.856;15.716;2024-01-27T11:22:23;4.00;99.90
20147;DHT22;10234;50.856;15.716;2024-01-27T11:24:51;4.20;99.90
20147;DHT22;10234;50.856;15.716;2024-01-27T11:27:18;4.00;99.90
20147;DHT22;10234;50.856;15.716;2024-01-27T11:29:47;3.90;99.90
20147;DHT22;10234;50.856;15.716;2024-01-27T11:32:15;4.60;99.90
20147;DHT22;10234;50.856;15.716;2024-01-27T11:34:43;4.20;99.90
20147;DHT22;10234;50.856;15.716;2024-01-27T11:37:11;4.30;99.90
20147;DHT22;10234;50.856;15.716;2024-01-27T11:39:38;4.30;99.90
20147;DHT22;10234;50.856;15.716;2024-01-27T11:44:34;4.40;99.90
20147;DHT22;10234;50.856;15.716;2024-01-27T11:47:01;4.50;99.90
20147;DHT22;10234;50.856;15.716;2024-01-27T11:49:30;4.50;99.90
20147;DHT22;10234;50.856;15.716;2024-01-27T11:51:57;4.50;99.90
20147;DHT22;10234;50.856;15.716;2024-01-27T11:54:24;4.40;99.90
20147;DHT22;10234;50.856;15.716;2024-01-27T11:56:51;4.30;99.90
20147;DHT22;10234;50.856;15.716;2024-01-27T11:59:17;4.20;99.90
20147;DHT22;10234;50.856;15.716;2024-01-27T12:01:44;4.00;99.90
20147;DHT22;10234;50.856;15.716;2024-01-27T12:04:11;4.30;99.90
20147;DHT22;10234;50.856;15.716;2024-01-27T12:06:41;4.00;99.90
20147;DHT22;10234;50.856;15.716;2024-01-27T12:09:08;4.00;99.90
20147;DHT22;10234;50.856;15.716;2024-01-27T12:11:38;4.00;99.90
20147;DHT22;10234;50.856;15.716;2024-01-27T12:14:05;4.00;99.90
20147;DHT22;10234;50.856;15.716;2024-01-27T12:16:32;3.80;99.90
20147;DHT22;10234;50.856;15.716;2024-01-27T12:18:59;4.00;99.90
20147;DHT22;10234;50.856;15.716;2024-01-27T12:21:26;4.00;99.90
20147;DHT22;10234;50.856;15.716;2024-01-27T12:23:56;4.00;99.90
20147;DHT22;10234;50.856;15.716;2024-01-27T12:26:25;4.50;99.90
20147;DHT22;10234;50.856;15.716;2024-01-27T12:28:53;4.00;99.90
20147;DHT22;10234;50.856;15.716;2024-01-27T12:31:22;4.20;99.90
20147;DHT22;10234;50.856;15.716;2024-01-27T12:33:50;4.10;99.90
20147;DHT22;10234;50.856;15.716;2024-01-27T12:36:18;4.20;99.90
20147;DHT22;10234;50.856;15.716;2024-01-27T12:38:55;4.50;99.90
20147;DHT22;10234;50.856;15.716;2024-01-27T12:41:24;4.80;99.90
20147;DHT22;10234;50.856;15.716;2024-01-27T12:43:51;4.00;99.90
20147;DHT22;10234;50.856;15.716;2024-01-27T12:46:17;4.30;99.90
20147;DHT22;10234;50.856;15.716;2024-01-27T12:48:45;4.10;99.90
20147;DHT22;10234;50.856;15.716;2024-01-27T12:51:12;4.10;99.90
20147;DHT22;10234;50.856;15.716;2024-01-27T12:53:40;4.00;99.90
20147;DHT22;10234;50.856;15.716;2024-01-27T12:56:11;4.20;99.90
20147;DHT22;10234;50.856;15.716;2024-01-27T12:58:38;4.00;99.90
20147;DHT22;10234;50.856;15.716;2024-01-27T13:01:05;3.90;99.90
20147;DHT22;10234;50.856;15.716;2024-01-27T13:03:32;4.20;99.90
20147;DHT22;10234;50.856;15.716;2024-01-27T13:06:00;4.10;99.90
20147;DHT22;10234;50.856;15.716;2024-01-27T13:08:27;4.10;99.90
20147;DHT22;10234;50.856;15.716;2024-01-27T13:10:57;4.80;99.90
20147;DHT22;10234;50.856;15.716;2024-01-27T13:13:25;4.10;99.90
20147;DHT22;10234;50.856;15.716;2024-01-27T13:15:52;4.10;99.90
20147;DHT22;10234;50.856;15.716;2024-01-27T13:18:19;4.70;99.90
20147;DHT22;10234;50.856;15.716;2024-01-27T13:20:46;4.20;99.90
20147;DHT22;10234;50.856;15.716;2024-01-27T13:23:12;4.00;99.90
20147;DHT22;10234;50.856;15.716;2024-01-27T13:25:39;4.00;99.90
20147;DHT22;10234;50.856;15.716;2024-01-27T13:28:06;4.00;99.90
20147;DHT22;10234;50.856;15.716;2024-01-27T13:30:38;4.00;99.90
20147;DHT22;10234;50.856;15.716;2024-01-27T13:33:05;4.10;99.90
20147;DHT22;10234;50.856;15.716;2024-01-27T13:35:32;4.00;99.90
20147;DHT22;10234;50.856;15.716;2024-01-27T13:37:58;4.10;99.90
20147;DHT22;10234;50.856;15.716;2024-01-27T13:42:52;4.20;99.90
20147;DHT22;10234;50.856;15.716;2024-01-27T13:45:19;4.20;99.90
20147;DHT22;10234;50.856;15.716;2024-01-27T13:47:47;4.10;99.90
20147;DHT22;10234;50.856;15.716;2024-01-27T13:50:14;4.20;99.90
20147;DHT22;10234;50.856;15.716;2024-01-27T13:52:41;4.20;99.90
20147;DHT22;10234;50.856;15.716;2024-01-27T13:55:11;4.20;99.90
20147;DHT22;10234;50.856;15.716;2024-01-27T13:57:38;4.10;99.90
20147;DHT22;10234;50.856;15.716;2024-01-27T14:00:06;4.20;99.90
20147;DHT22;10234;50.856;15.716;2024-01-27T14:02:34;4.10;99.90
20147;DHT22;10234;50.856;15.716;2024-01-27T14:05:03;3.90;99.90
20147;DHT22;10234;50.856;15.716;2024-01-27T14:07:30;4.00;99.90
20147;DHT22;10234;50.856;15.716;2024-01-27T14:09:57;5.00;99.90
20147;DHT22;10234;50.856;15.716;2024-01-27T14:12:23;3.90;99.90
20147;DHT22;10234;50.856;15.716;2024-01-27T14:14:50;3.90;99.90
20147;DHT22;10234;50.856;15.716;2024-01-27T14:17:18;3.80;99.90
20147;DHT22;10234;50.856;15.716;2024-01-27T14:19:46;3.90;99.90
20147;DHT22;10234;50.856;15.716;2024-01-27T14:22:14;3.80;99.90
20147;DHT22;10234;50.856;15.716;2024-01-27T14:24:41;3.70;99.90
20147;DHT22;10234;50.856;15.716;2024-01-27T14:27:08;3.70;99.90
20147;DHT22;10234;50.856;15.716;2024-01-27T14:29:36;3.70;99.90
20147;DHT22;10234;50.856;15.716;2024-01-27T14:32:04;3.60;99.90
20147;DHT22;10234;50.856;15.716;2024-01-27T14:34:32;3.70;99.90
20147;DHT22;10234;50.856;15.716;2024-01-27T14:36:59;3.80;99.90
20147;DHT22;10234;50.856;15.716;2024-01-27T14:39:29;4.20;99.90
20147;DHT22;10234;50.856;15.716;2024-01-27T14:41:56;3.40;99.90
20147;DHT22;10234;50.856;15.716;2024-01-27T14:44:23;3.40;99.90
20147;DHT22;10234;50.856;15.716;2024-01-27T14:46:50;3.10;99.90
20147;DHT22;10234;50.856;15.716;2024-01-27T14:49:17;3.40;99.90
20147;DHT22;10234;50.856;15.716;2024-01-27T14:51:44;3.50;99.90
20147;DHT22;10234;50.856;15.716;2024-01-27T14:54:10;3.50;99.90
20147;DHT22;10234;50.856;15.716;2024-01-27T14:56:39;3.30;99.90
20147;DHT22;10234;50.856;15.716;2024-01-27T14:59:06;3.20;99.90
20147;DHT22;10234;50.856;15.716;2024-01-27T15:01:33;3.20;99.90
20147;DHT22;10234;50.856;15.716;2024-01-27T15:04:00;4.10;99.90
20147;DHT22;10234;50.856;15.716;2024-01-27T15:06:27;3.20;99.90
20147;DHT22;10234;50.856;15.716;2024-01-27T15:08:54;3.20;99.90
20147;DHT22;10234;50.856;15.716;2024-01-27T15:11:21;3.20;99.90
20147;DHT22;10234;50.856;15.716;2024-01-27T15:13:49;3.00;99.90
20147;DHT22;10234;50.856;15.716;2024-01-27T15:16:16;3.20;99.90
20147;DHT22;10234;50.856;15.716;2024-01-27T15:18:43;3.20;99.90
20147;DHT22;10234;50.856;15.716;2024-01-27T15:21:12;3.10;99.90
20147;DHT22;10234;50.856;15.716;2024-01-27T15:23:39;3.20;99.90
20147;DHT22;10234;50.856;15.716;2024-01-27T15:26:05;3.80;99.90
20147;DHT22;10234;50.856;15.716;2024-01-27T15:28:32;3.40;99.90
20147;DHT22;10234;50.856;15.716;2024-01-27T15:31:01;3.20;99.90
20147;DHT22;10234;50.856;15.716;2024-01-27T15:33:27;3.20;99.90
20147;DHT22;10234;50.856;15.716;2024-01-27T15:35:54;3.10;99.90